createdAt,value
2018-02-21T00:01:54.141Z,-1.20
2018-02-21T00:04:21.817Z,-1.20
2018-02-21T00:06:49.483Z,-1.10
2018-02-21T00:09:16.990Z,-1.10
2018-02-21T00:11:44.499Z,-1.20
2018-02-21T00:14:12.085Z,-1.10
2018-02-21T00:16:39.575Z,-1.20
2018-02-21T00:19:07.523Z,-1.20
2018-02-21T00:21:35.031Z,-1.20
2018-02-21T00:24:03.098Z,-1.20
2018-02-21T00:26:30.615Z,-1.20
2018-02-21T00:28:58.563Z,-1.30
2018-02-21T00:31:26.077Z,-1.30
2018-02-21T00:33:53.614Z,-1.20
2018-02-21T00:36:21.143Z,-1.20
2018-02-21T00:38:48.840Z,-1.20
2018-02-21T00:41:16.366Z,-1.20
2018-02-21T00:43:44.673Z,-1.20
2018-02-21T00:46:12.234Z,-1.20
2018-02-21T00:48:39.885Z,-1.20
2018-02-21T00:51:07.389Z,-1.20
2018-02-21T00:53:35.407Z,-1.20
2018-02-21T00:56:02.916Z,-1.20
2018-02-21T00:58:30.431Z,-1.20
2018-02-21T01:00:58.355Z,-1.20
2018-02-21T01:03:25.856Z,-1.10
2018-02-21T01:05:53.498Z,-1.20
2018-02-21T01:08:21.403Z,-1.20
2018-02-21T01:10:48.937Z,-1.20
2018-02-21T01:13:16.688Z,-1.20
2018-02-21T01:15:45.160Z,-1.10
2018-02-21T01:18:13.058Z,-1.20
2018-02-21T01:20:40.995Z,-1.10
2018-02-21T01:23:08.516Z,-1.10
2018-02-21T01:25:36.043Z,-1.10
2018-02-21T01:28:03.944Z,-1.10
2018-02-21T01:30:31.879Z,-1.20
2018-02-21T01:32:59.398Z,-1.20
2018-02-21T01:35:27.039Z,-1.20
2018-02-21T01:37:54.558Z,-1.20
2018-02-21T01:40:22.835Z,-1.20
2018-02-21T01:42:50.767Z,-1.20
2018-02-21T01:45:18.474Z,-1.20
2018-02-21T01:47:46.408Z,-1.20
2018-02-21T01:50:13.923Z,-1.30
2018-02-21T01:52:41.450Z,-1.30
2018-02-21T01:55:08.975Z,-1.30
2018-02-21T01:57:36.498Z,-1.30
2018-02-21T02:00:04.007Z,-1.30
2018-02-21T02:02:31.555Z,-1.30
2018-02-21T02:04:59.459Z,-1.20
2018-02-21T02:07:27.023Z,-1.20
2018-02-21T02:09:54.923Z,-1.20
2018-02-21T02:12:22.451Z,-1.20
2018-02-21T02:14:50.728Z,-1.20
2018-02-21T02:17:18.351Z,-1.20
2018-02-21T02:19:45.867Z,-1.20
2018-02-21T02:22:13.407Z,-1.10
2018-02-21T02:24:40.928Z,-1.10
2018-02-21T02:27:08.835Z,-1.10
2018-02-21T02:29:36.350Z,-1.00
2018-02-21T02:32:03.879Z,-1.00
2018-02-21T02:34:31.819Z,-1.00
2018-02-21T02:36:59.338Z,-1.00
2018-02-21T02:39:38.738Z,-1.00
2018-02-21T02:42:06.260Z,-1.10
2018-02-21T02:44:33.963Z,-1.10
2018-02-21T02:47:01.891Z,-1.10
2018-02-21T02:49:29.428Z,-1.10
2018-02-21T02:51:57.019Z,-1.10
2018-02-21T02:54:25.019Z,-1.10
2018-02-21T02:56:53.668Z,-1.10
2018-02-21T02:59:21.203Z,-1.10
2018-02-21T03:01:48.751Z,-1.10
2018-02-21T03:04:16.691Z,-1.10
2018-02-21T03:06:44.218Z,-1.10
2018-02-21T03:09:11.738Z,-1.20
2018-02-21T03:11:39.282Z,-1.20
2018-02-21T03:14:06.792Z,-1.30
2018-02-21T03:16:34.318Z,-1.30
2018-02-21T03:19:01.830Z,-1.30
2018-02-21T03:21:29.363Z,-1.30
2018-02-21T03:23:57.651Z,-1.30
2018-02-21T03:26:25.404Z,-1.30
2018-02-21T03:28:53.316Z,-1.30
2018-02-21T03:31:20.856Z,-1.20
2018-02-21T03:33:48.379Z,-1.30
2018-02-21T03:36:16.693Z,-1.30
2018-02-21T03:38:44.614Z,-1.30
2018-02-21T03:41:12.144Z,-1.40
2018-02-21T03:43:40.075Z,-1.30
2018-02-21T03:46:08.449Z,-1.30
2018-02-21T03:48:35.970Z,-1.30
2018-02-21T03:51:03.534Z,-1.30
2018-02-21T03:53:31.049Z,-1.30
2018-02-21T03:55:58.588Z,-1.40
2018-02-21T04:02:39.560Z,-1.40
2018-02-21T04:05:07.191Z,-1.40
2018-02-21T04:07:34.844Z,-1.40
2018-02-21T04:10:02.378Z,-1.50
2018-02-21T04:12:29.926Z,-1.50
2018-02-21T04:14:57.835Z,-1.40
2018-02-21T04:17:25.360Z,-1.40
2018-02-21T04:19:53.068Z,-1.40
2018-02-21T04:22:20.611Z,-1.40
2018-02-21T04:24:48.525Z,-1.40
2018-02-21T04:27:16.448Z,-1.40
2018-02-21T04:29:43.996Z,-1.40
2018-02-21T04:32:11.565Z,-1.50
2018-02-21T04:34:39.121Z,-1.50
2018-02-21T04:37:06.647Z,-1.50
2018-02-21T04:39:34.246Z,-1.50
2018-02-21T04:42:01.768Z,-1.50
2018-02-21T04:44:29.304Z,-1.60
2018-02-21T04:46:57.227Z,-1.60
2018-02-21T04:49:24.829Z,-1.60
2018-02-21T04:51:52.320Z,-1.60
2018-02-21T04:54:25.655Z,-1.70
2018-02-21T05:09:17.776Z,-1.60
2018-02-21T05:11:45.819Z,-1.60
2018-02-21T05:14:13.372Z,-1.60
2018-02-21T05:16:40.886Z,-1.70
2018-02-21T05:19:08.823Z,-1.70
2018-02-21T05:21:36.745Z,-1.70
2018-02-21T05:24:04.297Z,-1.70
2018-02-21T05:26:31.848Z,-1.70
2018-02-21T05:28:59.772Z,-1.70
2018-02-21T05:31:27.399Z,-1.70
2018-02-21T05:33:54.911Z,-1.60
2018-02-21T05:36:22.851Z,-1.60
2018-02-21T05:38:50.474Z,-1.70
2018-02-21T05:41:18.028Z,-1.70
2018-02-21T05:43:45.547Z,-1.70
2018-02-21T05:46:13.100Z,-1.60
2018-02-21T05:48:40.635Z,-1.60
2018-02-21T05:51:08.168Z,-1.60
2018-02-21T05:53:35.684Z,-1.60
2018-02-21T05:56:03.622Z,-1.60
2018-02-21T05:58:31.160Z,-1.70
2018-02-21T06:00:58.727Z,-1.70
2018-02-21T06:03:26.647Z,-1.70
2018-02-21T06:05:54.588Z,-1.70
2018-02-21T06:08:22.117Z,-1.60
2018-02-21T06:10:50.076Z,-1.70
2018-02-21T06:13:17.647Z,-1.60
2018-02-21T06:15:45.567Z,-1.60
2018-02-21T06:18:13.531Z,-1.60
2018-02-21T06:20:41.911Z,-1.60
2018-02-21T06:23:09.866Z,-1.60
2018-02-21T06:25:37.803Z,-1.70
2018-02-21T06:28:05.350Z,-1.70
2018-02-21T06:30:32.879Z,-1.70
2018-02-21T06:33:00.473Z,-1.70
2018-02-21T06:35:28.018Z,-1.70
2018-02-21T06:37:55.589Z,-1.80
2018-02-21T06:40:23.567Z,-1.90
2018-02-21T06:42:51.282Z,-1.80
2018-02-21T06:45:18.880Z,-1.80
2018-02-21T06:47:46.412Z,-1.80
2018-02-21T06:50:13.944Z,-1.80
2018-02-21T06:52:41.511Z,-1.80
2018-02-21T06:55:09.092Z,-1.70
2018-02-21T06:57:36.637Z,-1.70
2018-02-21T07:00:04.180Z,-1.70
2018-02-21T07:02:35.466Z,-1.70
2018-02-21T07:05:03.395Z,-1.70
2018-02-21T07:07:31.328Z,-1.70
2018-02-21T07:09:58.954Z,-1.70
2018-02-21T07:12:26.477Z,-1.80
2018-02-21T07:14:54.413Z,-1.70
2018-02-21T07:17:22.699Z,-1.70
2018-02-21T07:19:50.624Z,-1.60
2018-02-21T07:22:18.536Z,-1.50
2018-02-21T07:24:46.095Z,-1.50
2018-02-21T07:27:13.638Z,-1.50
2018-02-21T07:29:41.210Z,-1.60
2018-02-21T07:32:09.248Z,-1.70
2018-02-21T07:34:36.906Z,-1.70
2018-02-21T07:37:04.439Z,-1.80
2018-02-21T07:39:31.971Z,-1.80
2018-02-21T07:41:59.943Z,-1.80
2018-02-21T07:44:27.955Z,-1.80
2018-02-21T07:46:55.614Z,-1.80
2018-02-21T07:49:23.179Z,-1.80
2018-02-21T07:51:50.835Z,-1.80
2018-02-21T07:54:18.439Z,-1.80
2018-02-21T07:56:46.060Z,-1.80
2018-02-21T07:59:13.576Z,-1.80
2018-02-21T08:01:41.886Z,-1.90
2018-02-21T08:04:09.493Z,-1.80
2018-02-21T08:06:37.440Z,-1.80
2018-02-21T08:09:04.964Z,-1.80
2018-02-21T08:11:32.628Z,-1.80
2018-02-21T08:14:00.210Z,-1.80
2018-02-21T08:16:27.723Z,-1.70
2018-02-21T08:18:55.271Z,-1.70
2018-02-21T08:21:23.237Z,-1.60
2018-02-21T08:23:51.160Z,-1.60
2018-02-21T08:26:18.878Z,-1.60
2018-02-21T08:28:46.441Z,-1.50
2018-02-21T08:31:13.960Z,-1.40
2018-02-21T08:33:41.599Z,-1.40
2018-02-21T08:36:09.123Z,-1.30
2018-02-21T08:38:36.672Z,-1.30
2018-02-21T08:41:04.199Z,-1.20
2018-02-21T08:43:31.759Z,-1.20
2018-02-21T08:45:59.692Z,-1.10
2018-02-21T08:48:27.441Z,-1.00
2018-02-21T08:50:54.983Z,-1.10
2018-02-21T08:53:23.015Z,-1.10
2018-02-21T08:55:50.942Z,-1.00
2018-02-21T08:58:18.503Z,-0.90
2018-02-21T09:00:46.036Z,-0.70
2018-02-21T09:03:13.814Z,-0.60
2018-02-21T09:05:41.364Z,-0.40
2018-02-21T09:08:08.937Z,-0.10
2018-02-21T09:10:36.450Z,0.30
2018-02-21T09:13:04.400Z,0.50
2018-02-21T09:15:32.427Z,0.70
2018-02-21T09:18:00.088Z,0.70
2018-02-21T09:20:28.011Z,0.70
2018-02-21T09:22:55.617Z,0.60
2018-02-21T09:25:23.582Z,0.70
2018-02-21T09:27:51.527Z,0.80
2018-02-21T09:30:19.460Z,0.90
2018-02-21T09:32:46.980Z,1.00
2018-02-21T09:35:14.509Z,0.90
2018-02-21T09:37:42.451Z,0.90
2018-02-21T09:40:10.432Z,0.80
2018-02-21T09:42:38.355Z,0.50
2018-02-21T09:45:06.283Z,0.30
2018-02-21T09:47:34.990Z,0.20
2018-02-21T09:50:02.563Z,0.20
2018-02-21T09:52:30.155Z,0.30
2018-02-21T09:54:57.716Z,0.40
2018-02-21T09:57:25.237Z,0.70
2018-02-21T09:59:52.764Z,0.80
2018-02-21T10:02:20.311Z,0.90
2018-02-21T10:04:48.280Z,0.90
2018-02-21T10:07:15.828Z,0.60
2018-02-21T10:09:44.128Z,0.50
2018-02-21T10:12:11.691Z,0.40
2018-02-21T10:14:39.241Z,0.40
2018-02-21T10:17:06.859Z,0.30
2018-02-21T10:19:34.383Z,0.30
2018-02-21T10:22:01.926Z,0.40
2018-02-21T10:24:29.435Z,0.60
2018-02-21T10:26:56.967Z,0.60
2018-02-21T10:29:24.496Z,0.40
2018-02-21T10:31:52.053Z,0.60
2018-02-21T10:34:19.572Z,0.90
2018-02-21T10:36:47.109Z,1.10
2018-02-21T10:39:14.759Z,1.40
2018-02-21T10:41:42.303Z,2.00
2018-02-21T10:44:09.863Z,2.70
2018-02-21T10:46:37.406Z,3.40
2018-02-21T10:49:04.921Z,3.70
2018-02-21T10:51:32.468Z,4.00
2018-02-21T10:54:00.022Z,3.90
2018-02-21T10:56:27.548Z,3.70
2018-02-21T10:58:55.451Z,3.50
2018-02-21T11:01:24.875Z,3.60
2018-02-21T11:03:52.483Z,3.90
2018-02-21T11:06:19.992Z,4.30
2018-02-21T11:08:47.609Z,3.90
2018-02-21T11:11:15.163Z,3.80
2018-02-21T11:13:43.100Z,3.70
2018-02-21T11:16:11.024Z,3.60
2018-02-21T11:18:38.579Z,3.60
2018-02-21T11:21:06.170Z,3.30
2018-02-21T11:23:34.151Z,3.10
2018-02-21T11:26:01.660Z,2.80
2018-02-21T11:28:29.295Z,2.60
2018-02-21T11:30:56.831Z,2.30
2018-02-21T11:33:24.767Z,2.30
2018-02-21T11:35:52.300Z,2.50
2018-02-21T11:38:19.852Z,2.70
2018-02-21T11:40:47.399Z,2.40
2018-02-21T11:43:14.928Z,2.30
2018-02-21T11:45:43.340Z,2.20
2018-02-21T11:48:10.902Z,2.20
2018-02-21T11:50:38.479Z,2.10
2018-02-21T11:53:06.073Z,2.10
2018-02-21T11:55:33.630Z,2.20
2018-02-21T11:58:01.560Z,2.20
2018-02-21T12:00:29.109Z,2.10
2018-02-21T12:02:56.645Z,2.20
2018-02-21T12:05:24.178Z,2.30
2018-02-21T12:07:52.480Z,2.40
2018-02-21T12:10:20.048Z,2.40
2018-02-21T12:12:47.623Z,2.30
2018-02-21T12:15:15.662Z,2.20
2018-02-21T12:17:43.184Z,2.00
2018-02-21T12:20:10.714Z,2.00
2018-02-21T12:22:38.223Z,1.80
2018-02-21T12:25:06.517Z,1.70
2018-02-21T12:27:34.092Z,1.60
2018-02-21T12:30:01.746Z,1.50
2018-02-21T12:32:32.192Z,1.50
2018-02-21T12:34:59.729Z,1.40
2018-02-21T12:37:27.250Z,1.30
2018-02-21T12:39:59.031Z,1.20
2018-02-21T12:42:26.557Z,1.20
2018-02-21T12:44:54.515Z,1.20
2018-02-21T12:47:22.133Z,1.10
2018-02-21T12:49:49.674Z,1.10
2018-02-21T12:52:17.252Z,1.10
2018-02-21T12:54:44.816Z,1.00
2018-02-21T12:57:12.331Z,1.00
2018-02-21T12:59:40.611Z,1.00
2018-02-21T13:02:08.192Z,1.00
2018-02-21T13:04:35.716Z,0.90
2018-02-21T13:07:03.691Z,0.90
2018-02-21T13:09:32.011Z,1.00
2018-02-21T13:11:59.559Z,0.90
2018-02-21T13:14:27.135Z,0.80
2018-02-21T13:16:54.782Z,0.70
2018-02-21T13:19:22.300Z,0.60
2018-02-21T13:21:50.227Z,0.60
2018-02-21T13:24:17.872Z,0.70
2018-02-21T13:26:45.395Z,0.60
2018-02-21T13:29:13.314Z,0.60
2018-02-21T13:31:41.236Z,0.70
2018-02-21T13:34:08.767Z,0.80
2018-02-21T13:36:36.307Z,0.90
2018-02-21T13:39:03.841Z,0.90
2018-02-21T13:41:31.417Z,0.90
2018-02-21T13:43:58.931Z,0.90
2018-02-21T13:46:26.438Z,0.90
2018-02-21T13:48:54.367Z,0.80
2018-02-21T13:51:21.910Z,0.70
2018-02-21T13:53:49.487Z,0.70
2018-02-21T13:56:17.067Z,0.60
2018-02-21T13:58:44.595Z,0.50
2018-02-21T14:01:12.147Z,0.50
2018-02-21T14:03:39.694Z,0.60
2018-02-21T14:06:07.610Z,0.70
2018-02-21T14:08:35.147Z,0.70
2018-02-21T14:11:02.675Z,0.70
2018-02-21T14:13:31.340Z,0.60
2018-02-21T14:15:59.641Z,0.60
2018-02-21T14:18:27.217Z,0.60
2018-02-21T14:20:54.737Z,0.60
2018-02-21T14:23:22.745Z,0.60
2018-02-21T20:05:46.010Z,-1.00
2018-02-21T20:08:13.546Z,-1.00
2018-02-21T20:10:41.503Z,-1.00
2018-02-21T20:13:09.060Z,-1.00
2018-02-21T20:15:36.983Z,-0.90
2018-02-21T20:18:04.930Z,-0.90
2018-02-21T20:20:32.873Z,-0.90
2018-02-21T20:23:00.450Z,-0.90
2018-02-21T20:25:28.060Z,-0.80
2018-02-21T20:27:55.594Z,-0.90
2018-02-21T20:30:23.526Z,-0.90
2018-02-21T20:32:51.827Z,-1.00
2018-02-21T20:35:19.744Z,-1.00
2018-02-21T20:37:47.310Z,-0.90
2018-02-21T20:40:14.818Z,-1.00
2018-02-21T20:42:42.748Z,-1.00
2018-02-21T20:45:10.273Z,-1.00
2018-02-21T20:47:37.945Z,-1.10
2018-02-21T20:50:05.475Z,-1.10
2018-02-21T20:52:33.075Z,-1.10
2018-02-21T20:55:00.996Z,-1.20
2018-02-21T20:57:28.990Z,-1.20
2018-02-21T20:59:56.528Z,-1.10
2018-02-21T21:02:24.452Z,-1.20
2018-02-21T21:04:52.082Z,-1.20
2018-02-21T21:07:19.598Z,-1.10
2018-02-21T21:09:47.520Z,-1.10
2018-02-21T21:12:15.712Z,-1.10
2018-02-21T21:14:43.640Z,-1.10
2018-02-21T21:17:11.238Z,-1.10
2018-02-21T21:19:39.180Z,-1.20
2018-02-21T21:22:06.710Z,-1.10
2018-02-21T21:24:34.270Z,-1.20
2018-02-21T21:27:02.203Z,-1.20
2018-02-21T21:29:29.731Z,-1.20
2018-02-21T21:31:57.260Z,-1.20
2018-02-21T21:34:25.192Z,-1.20
2018-02-21T21:36:53.108Z,-1.30
2018-02-21T21:39:20.653Z,-1.40
2018-02-21T21:41:48.422Z,-1.40
2018-02-21T21:44:16.016Z,-1.50
2018-02-21T21:46:43.550Z,-1.50
2018-02-21T21:49:11.064Z,-1.50
2018-02-21T21:51:39.091Z,-1.60
2018-02-21T21:54:07.021Z,-1.60
2018-02-21T21:56:34.562Z,-1.70
2018-02-21T21:59:02.589Z,-1.70
2018-02-21T22:01:30.246Z,-1.80
2018-02-21T22:03:57.750Z,-1.80
2018-02-21T22:06:26.095Z,-1.90
2018-02-21T22:08:53.639Z,-1.90
2018-02-21T22:11:21.201Z,-1.90
2018-02-21T22:13:48.711Z,-2.00
2018-02-21T22:16:16.660Z,-2.00
2018-02-21T22:18:44.583Z,-2.10
2018-02-21T22:21:12.131Z,-2.00
2018-02-21T22:23:40.048Z,-2.00
2018-02-21T22:26:07.990Z,-2.00
2018-02-21T22:28:35.512Z,-2.10
2018-02-21T22:31:03.063Z,-2.10
2018-02-21T22:33:30.584Z,-2.10
2018-02-21T22:35:58.494Z,-2.10
2018-02-21T22:38:26.049Z,-2.10
2018-02-21T22:40:53.607Z,-2.00
2018-02-21T22:43:21.141Z,-2.10
2018-02-21T22:45:49.070Z,-2.20
2018-02-21T22:48:16.599Z,-2.10
2018-02-21T22:50:44.531Z,-2.10
2018-02-21T22:53:12.459Z,-2.10
2018-02-21T22:55:40.753Z,-2.10
2018-02-21T22:58:08.313Z,-2.10
2018-02-21T23:00:35.837Z,-2.20
2018-02-21T23:03:03.797Z,-2.20
2018-02-21T23:05:31.330Z,-2.30
2018-02-21T23:07:59.262Z,-2.40
2018-02-21T23:10:26.786Z,-2.40
2018-02-21T23:12:54.346Z,-2.50
2018-02-21T23:15:22.270Z,-2.50
2018-02-21T23:17:50.192Z,-2.60
2018-02-21T23:20:17.744Z,-2.70
2018-02-21T23:22:45.303Z,-2.70
2018-02-21T23:25:12.861Z,-2.70
2018-02-21T23:27:40.380Z,-2.70
2018-02-21T23:30:08.324Z,-2.80
2018-02-21T23:32:35.847Z,-2.90
2018-02-21T23:35:03.374Z,-2.90
2018-02-21T23:37:31.316Z,-3.00
2018-02-21T23:39:59.429Z,-3.00
2018-02-21T23:42:26.943Z,-3.00
2018-02-21T23:44:55.643Z,-3.10
2018-02-21T23:47:23.563Z,-3.20
2018-02-21T23:49:51.543Z,-3.30
2018-02-21T23:52:19.462Z,-3.40
2018-02-21T23:54:47.403Z,-3.40
2018-02-21T23:57:15.322Z,-3.50
2018-02-21T23:59:42.835Z,-3.50
